sensor_id;sensor_type;location;lat;lon;timestamp;pressure;altitude;pressure_sealevel;temperature;humidity
60974;BME280;46846;51.528;5.076;2022-07-22T00:00:58;101634.75;;;19.03;52.04
60974;BME280;46846;51.528;5.076;2022-07-22T00:03:23;101635.72;;;19.02;51.75
60974;BME280;46846;51.528;5.076;2022-07-22T00:05:49;101634.03;;;18.99;51.93
60974;BME280;46846;51.528;5.076;2022-07-22T00:08:14;101626.13;;;18.96;51.69
60974;BME280;46846;51.528;5.076;2022-07-22T00:10:40;101625.84;;;19.01;51.64
60974;BME280;46846;51.528;5.076;2022-07-22T00:13:05;101631.25;;;19.01;51.61
60974;BME280;46846;51.528;5.076;2022-07-22T00:15:31;101627.66;;;19.00;51.58
60974;BME280;46846;51.528;5.076;2022-07-22T00:17:56;101635.88;;;18.99;51.82
60974;BME280;46846;51.528;5.076;2022-07-22T00:20:21;101624.19;;;18.98;51.65
60974;BME280;46846;51.528;5.076;2022-07-22T00:22:47;101624.28;;;18.97;52.03
60974;BME280;46846;51.528;5.076;2022-07-22T00:25:12;101627.06;;;18.95;51.67
60974;BME280;46846;51.528;5.076;2022-07-22T00:27:38;101636.97;;;18.95;51.70
60974;BME280;46846;51.528;5.076;2022-07-22T00:30:04;101630.75;;;18.94;52.39
60974;BME280;46846;51.528;5.076;2022-07-22T00:32:30;101622.66;;;18.94;51.61
60974;BME280;46846;51.528;5.076;2022-07-22T00:34:55;101626.19;;;18.95;51.53
60974;BME280;46846;51.528;5.076;2022-07-22T00:37:21;101627.06;;;18.95;51.84
60974;BME280;46846;51.528;5.076;2022-07-22T00:39:46;101628.97;;;18.93;52.09
60974;BME280;46846;51.528;5.076;2022-07-22T00:42:13;101617.34;;;18.93;51.71
60974;BME280;46846;51.528;5.076;2022-07-22T00:44:39;101622.72;;;18.93;52.02
60974;BME280;46846;51.528;5.076;2022-07-22T00:47:05;101621.97;;;18.91;51.72
60974;BME280;46846;51.528;5.076;2022-07-22T00:49:30;101622.88;;;18.90;51.48
60974;BME280;46846;51.528;5.076;2022-07-22T00:51:56;101622.88;;;18.90;51.81
60974;BME280;46846;51.528;5.076;2022-07-22T00:54:21;101619.34;;;18.89;51.54
60974;BME280;46846;51.528;5.076;2022-07-22T00:56:47;101611.25;;;18.89;51.88
60974;BME280;46846;51.528;5.076;2022-07-22T00:59:13;101608.63;;;18.88;52.37
60974;BME280;46846;51.528;5.076;2022-07-22T01:01:39;101614.03;;;18.88;51.64
60974;BME280;46846;51.528;5.076;2022-07-22T01:04:05;101611.41;;;18.86;51.63
60974;BME280;46846;51.528;5.076;2022-07-22T01:06:31;101607.94;;;18.84;51.80
60974;BME280;46846;51.528;5.076;2022-07-22T01:08:57;101609.78;;;18.83;52.10
60974;BME280;46846;51.528;5.076;2022-07-22T01:11:23;101607.16;;;18.82;51.93
60974;BME280;46846;51.528;5.076;2022-07-22T01:13:48;101605.31;;;18.82;51.77
60974;BME280;46846;51.528;5.076;2022-07-22T01:16:16;101608.13;;;18.81;51.76
60974;BME280;46846;51.528;5.076;2022-07-22T01:18:42;101601.84;;;18.80;51.68
60974;BME280;46846;51.528;5.076;2022-07-22T01:21:09;101614.47;;;18.80;51.61
60974;BME280;46846;51.528;5.076;2022-07-22T01:23:35;101613.69;;;18.78;51.75
60974;BME280;46846;51.528;5.076;2022-07-22T01:26:02;101613.59;;;18.79;51.69
60974;BME280;46846;51.528;5.076;2022-07-22T01:28:28;101615.41;;;18.79;51.85
60974;BME280;46846;51.528;5.076;2022-07-22T01:30:53;101615.41;;;18.79;51.91
60974;BME280;46846;51.528;5.076;2022-07-22T01:33:20;101607.44;;;18.77;51.70
60974;BME280;46846;51.528;5.076;2022-07-22T01:35:46;101614.63;;;18.77;51.95
60974;BME280;46846;51.528;5.076;2022-07-22T01:38:12;101612.97;;;18.74;51.66
60974;BME280;46846;51.528;5.076;2022-07-22T01:40:38;101624.66;;;18.75;51.96
60974;BME280;46846;51.528;5.076;2022-07-22T01:43:04;101624.84;;;18.71;51.86
60974;BME280;46846;51.528;5.076;2022-07-22T01:45:30;101631.16;;;18.70;52.07
60974;BME280;46846;51.528;5.076;2022-07-22T01:47:55;101611.44;;;18.70;51.66
60974;BME280;46846;51.528;5.076;2022-07-22T01:50:20;101608.81;;;18.68;51.91
60974;BME280;46846;51.528;5.076;2022-07-22T01:52:46;101606.13;;;18.68;51.63
60974;BME280;46846;51.528;5.076;2022-07-22T01:55:11;101613.44;;;18.66;52.10
60974;BME280;46846;51.528;5.076;2022-07-22T01:57:37;101608.13;;;18.65;51.87
60974;BME280;46846;51.528;5.076;2022-07-22T02:00:07;101609.97;;;18.64;51.97
60974;BME280;46846;51.528;5.076;2022-07-22T02:02:34;101601.19;;;18.61;52.12
60974;BME280;46846;51.528;5.076;2022-07-22T02:04:59;101604.81;;;18.59;52.11
60974;BME280;46846;51.528;5.076;2022-07-22T02:07:25;101602.22;;;18.58;52.13
60974;BME280;46846;51.528;5.076;2022-07-22T02:09:51;101607.69;;;18.56;52.19
60974;BME280;46846;51.528;5.076;2022-07-22T02:12:17;101598.72;;;18.56;52.41
60974;BME280;46846;51.528;5.076;2022-07-22T02:14:43;101595.16;;;18.55;51.88
60974;BME280;46846;51.528;5.076;2022-07-22T02:17:08;101600.47;;;18.57;51.94
60974;BME280;46846;51.528;5.076;2022-07-22T02:19:34;101605.06;;;18.55;52.13
60974;BME280;46846;51.528;5.076;2022-07-22T02:21:59;101593.50;;;18.53;52.13
60974;BME280;46846;51.528;5.076;2022-07-22T02:24:24;101598.91;;;18.53;51.79
60974;BME280;46846;51.528;5.076;2022-07-22T02:26:50;101595.44;;;18.51;52.28
60974;BME280;46846;51.528;5.076;2022-07-22T02:29:15;101597.44;;;18.47;52.18
60974;BME280;46846;51.528;5.076;2022-07-22T02:31:41;101588.47;;;18.47;52.00
60974;BME280;46846;51.528;5.076;2022-07-22T02:34:06;101591.22;;;18.45;52.31
60974;BME280;46846;51.528;5.076;2022-07-22T02:36:32;101593.06;;;18.44;51.94
60974;BME280;46846;51.528;5.076;2022-07-22T02:38:57;101593.94;;;18.45;52.21
60974;BME280;46846;51.528;5.076;2022-07-22T02:41:23;101586.91;;;18.42;52.38
60974;BME280;46846;51.528;5.076;2022-07-22T02:43:48;101579.78;;;18.41;52.23
60974;BME280;46846;51.528;5.076;2022-07-22T02:46:13;101580.72;;;18.40;52.06
60974;BME280;46846;51.528;5.076;2022-07-22T02:48:39;101583.41;;;18.40;52.25
60974;BME280;46846;51.528;5.076;2022-07-22T02:51:05;101572.75;;;18.39;52.20
60974;BME280;46846;51.528;5.076;2022-07-22T02:53:30;101571.84;;;18.38;52.21
60974;BME280;46846;51.528;5.076;2022-07-22T02:55:55;101568.19;;;18.39;52.22
60974;BME280;46846;51.528;5.076;2022-07-22T02:58:21;101571.09;;;18.36;52.38
60974;BME280;46846;51.528;5.076;2022-07-22T03:00:46;101571.09;;;18.36;52.18
60974;BME280;46846;51.528;5.076;2022-07-22T03:03:12;101569.34;;;18.35;52.22
60974;BME280;46846;51.528;5.076;2022-07-22T03:05:38;101567.59;;;18.34;52.13
60974;BME280;46846;51.528;5.076;2022-07-22T03:08:03;101561.41;;;18.32;52.16
60974;BME280;46846;51.528;5.076;2022-07-22T03:10:29;101570.47;;;18.31;52.24
60974;BME280;46846;51.528;5.076;2022-07-22T03:12:54;101566.09;;;18.28;52.23
60974;BME280;46846;51.528;5.076;2022-07-22T03:15:19;101560.81;;;18.27;52.56
60974;BME280;46846;51.528;5.076;2022-07-22T03:17:45;101569.69;;;18.29;52.31
60974;BME280;46846;51.528;5.076;2022-07-22T03:20:11;101559.75;;;18.29;52.07
60974;BME280;46846;51.528;5.076;2022-07-22T03:22:36;101565.31;;;18.26;52.22
60974;BME280;46846;51.528;5.076;2022-07-22T03:25:03;101569.84;;;18.26;52.07
60974;BME280;46846;51.528;5.076;2022-07-22T03:27:28;101570.72;;;18.26;52.15
60974;BME280;46846;51.528;5.076;2022-07-22T03:29:54;101571.69;;;18.25;52.29
60974;BME280;46846;51.528;5.076;2022-07-22T03:32:19;101574.44;;;18.24;52.14
60974;BME280;46846;51.528;5.076;2022-07-22T03:34:45;101571.81;;;18.22;52.18
60974;BME280;46846;51.528;5.076;2022-07-22T03:37:10;101580.00;;;18.21;52.19
60974;BME280;46846;51.528;5.076;2022-07-22T03:39:36;101587.28;;;18.18;52.38
60974;BME280;46846;51.528;5.076;2022-07-22T03:42:01;101589.13;;;18.18;52.32
60974;BME280;46846;51.528;5.076;2022-07-22T03:44:27;101588.09;;;18.21;52.01
60974;BME280;46846;51.528;5.076;2022-07-22T03:46:53;101587.41;;;18.17;52.13
60974;BME280;46846;51.528;5.076;2022-07-22T03:49:18;101587.41;;;18.17;52.31
60974;BME280;46846;51.528;5.076;2022-07-22T03:51:44;101584.78;;;18.15;52.25
60974;BME280;46846;51.528;5.076;2022-07-22T03:54:09;101587.47;;;18.15;52.16
60974;BME280;46846;51.528;5.076;2022-07-22T03:56:35;101586.69;;;18.13;52.18
60974;BME280;46846;51.528;5.076;2022-07-22T03:59:00;101591.38;;;18.10;52.32
60974;BME280;46846;51.528;5.076;2022-07-22T04:01:25;101593.19;;;18.09;52.11
60974;BME280;46846;51.528;5.076;2022-07-22T04:03:51;101597.63;;;18.10;52.32
60974;BME280;46846;51.528;5.076;2022-07-22T04:06:16;101588.75;;;18.08;52.47
60974;BME280;46846;51.528;5.076;2022-07-22T04:08:42;101593.38;;;18.06;52.59
60974;BME280;46846;51.528;5.076;2022-07-22T04:11:07;101592.56;;;18.04;52.23
60974;BME280;46846;51.528;5.076;2022-07-22T04:13:33;101586.25;;;18.05;52.18
60974;BME280;46846;51.528;5.076;2022-07-22T04:15:58;101589.84;;;18.04;52.22
60974;BME280;46846;51.528;5.076;2022-07-22T04:18:24;101592.63;;;18.02;52.54
60974;BME280;46846;51.528;5.076;2022-07-22T04:20:49;101589.06;;;18.02;52.33
60974;BME280;46846;51.528;5.076;2022-07-22T04:23:15;101591.75;;;18.02;52.21
60974;BME280;46846;51.528;5.076;2022-07-22T04:25:40;101591.03;;;17.98;52.21
60974;BME280;46846;51.528;5.076;2022-07-22T04:28:06;101585.66;;;17.98;52.13
60974;BME280;46846;51.528;5.076;2022-07-22T04:30:31;101589.31;;;17.97;52.08
60974;BME280;46846;51.528;5.076;2022-07-22T04:32:57;101587.50;;;17.98;52.48
60974;BME280;46846;51.528;5.076;2022-07-22T04:35:23;101587.56;;;17.96;52.39
60974;BME280;46846;51.528;5.076;2022-07-22T04:37:48;101583.13;;;17.95;52.21
60974;BME280;46846;51.528;5.076;2022-07-22T04:40:14;101587.63;;;17.95;52.29
60974;BME280;46846;51.528;5.076;2022-07-22T04:42:39;101582.44;;;17.92;52.53
60974;BME280;46846;51.528;5.076;2022-07-22T04:45:05;101580.69;;;17.90;52.44
60974;BME280;46846;51.528;5.076;2022-07-22T04:47:30;101575.31;;;17.90;52.37
60974;BME280;46846;51.528;5.076;2022-07-22T04:49:55;101575.31;;;17.90;52.08
60974;BME280;46846;51.528;5.076;2022-07-22T04:52:21;101569.94;;;17.90;52.53
60974;BME280;46846;51.528;5.076;2022-07-22T04:54:46;101576.16;;;17.91;52.20
60974;BME280;46846;51.528;5.076;2022-07-22T04:57:11;101566.44;;;17.88;52.33
60974;BME280;46846;51.528;5.076;2022-07-22T04:59:37;101566.44;;;17.88;52.12
60974;BME280;46846;51.528;5.076;2022-07-22T05:02:02;101565.56;;;17.88;52.25
60974;BME280;46846;51.528;5.076;2022-07-22T05:04:28;101566.53;;;17.87;52.34
60974;BME280;46846;51.528;5.076;2022-07-22T05:06:54;101570.97;;;17.88;52.36
60974;BME280;46846;51.528;5.076;2022-07-22T05:09:19;101567.31;;;17.89;52.44
60974;BME280;46846;51.528;5.076;2022-07-22T05:11:45;101565.50;;;17.89;52.17
60974;BME280;46846;51.528;5.076;2022-07-22T05:14:10;101566.44;;;17.88;52.25
60974;BME280;46846;51.528;5.076;2022-07-22T05:16:36;101562.88;;;17.88;52.19
60974;BME280;46846;51.528;5.076;2022-07-22T05:19:03;101560.13;;;17.89;52.32
60974;BME280;46846;51.528;5.076;2022-07-22T05:21:28;101567.38;;;17.87;52.30
60974;BME280;46846;51.528;5.076;2022-07-22T05:23:54;101572.75;;;17.87;52.24
60974;BME280;46846;51.528;5.076;2022-07-22T05:26:19;101578.16;;;17.87;52.08
60974;BME280;46846;51.528;5.076;2022-07-22T05:28:45;101578.16;;;17.87;52.19
60974;BME280;46846;51.528;5.076;2022-07-22T05:31:10;101572.69;;;17.89;52.19
60974;BME280;46846;51.528;5.076;2022-07-22T05:33:35;101576.34;;;17.88;53.06
60974;BME280;46846;51.528;5.076;2022-07-22T05:36:01;101580.06;;;17.85;52.08
60974;BME280;46846;51.528;5.076;2022-07-22T05:38:27;101587.19;;;17.86;52.32
60974;BME280;46846;51.528;5.076;2022-07-22T05:40:53;101580.00;;;17.87;52.37
60974;BME280;46846;51.528;5.076;2022-07-22T05:43:18;101574.59;;;17.87;52.29
60974;BME280;46846;51.528;5.076;2022-07-22T05:45:44;101578.16;;;17.87;52.48
60974;BME280;46846;51.528;5.076;2022-07-22T05:48:09;101580.00;;;17.87;52.13
60974;BME280;46846;51.528;5.076;2022-07-22T05:50:35;101584.41;;;17.88;52.04
60974;BME280;46846;51.528;5.076;2022-07-22T05:53:01;101589.88;;;17.86;52.46
60974;BME280;46846;51.528;5.076;2022-07-22T05:55:26;101575.56;;;17.86;52.49
60974;BME280;46846;51.528;5.076;2022-07-22T05:57:51;101576.50;;;17.85;52.21
60974;BME280;46846;51.528;5.076;2022-07-22T06:00:17;101578.25;;;17.86;52.08
60974;BME280;46846;51.528;5.076;2022-07-22T06:02:42;101575.63;;;17.84;52.22
60974;BME280;46846;51.528;5.076;2022-07-22T06:05:08;101568.53;;;17.83;52.17
60974;BME280;46846;51.528;5.076;2022-07-22T06:07:33;101567.50;;;17.86;51.89
60974;BME280;46846;51.528;5.076;2022-07-22T06:09:59;101564.88;;;17.84;52.51
60974;BME280;46846;51.528;5.076;2022-07-22T06:12:24;101565.81;;;17.83;51.98
60974;BME280;46846;51.528;5.076;2022-07-22T06:14:49;101567.56;;;17.84;52.15
60974;BME280;46846;51.528;5.076;2022-07-22T06:17:15;101569.28;;;17.85;52.27
60974;BME280;46846;51.528;5.076;2022-07-22T06:19:40;101578.25;;;17.86;52.14
60974;BME280;46846;51.528;5.076;2022-07-22T06:22:05;101572.00;;;17.85;52.18
60974;BME280;46846;51.528;5.076;2022-07-22T06:24:31;101577.38;;;17.85;52.09
60974;BME280;46846;51.528;5.076;2022-07-22T06:26:56;101571.91;;;17.87;52.32
60974;BME280;46846;51.528;5.076;2022-07-22T06:29:21;101568.34;;;17.86;52.30
60974;BME280;46846;51.528;5.076;2022-07-22T06:31:47;101571.03;;;17.86;52.17
60974;BME280;46846;51.528;5.076;2022-07-22T06:34:13;101565.66;;;17.86;52.15
60974;BME280;46846;51.528;5.076;2022-07-22T06:36:38;101572.75;;;17.87;52.50
60974;BME280;46846;51.528;5.076;2022-07-22T06:39:03;101567.38;;;17.87;52.25
60974;BME280;46846;51.528;5.076;2022-07-22T06:41:29;101569.13;;;17.88;52.10
60974;BME280;46846;51.528;5.076;2022-07-22T06:43:54;101570.88;;;17.89;51.87
60974;BME280;46846;51.528;5.076;2022-07-22T06:46:20;101572.69;;;17.89;51.91
60974;BME280;46846;51.528;5.076;2022-07-22T06:48:45;101586.09;;;17.90;52.00
60974;BME280;46846;51.528;5.076;2022-07-22T06:51:10;101571.41;;;17.96;56.05
60974;BME280;46846;51.528;5.076;2022-07-22T06:53:36;101571.00;;;18.04;53.02
60974;BME280;46846;51.528;5.076;2022-07-22T06:56:02;101575.50;;;18.03;52.85
60974;BME280;46846;51.528;5.076;2022-07-22T06:58:27;101573.06;;;17.99;52.29
60974;BME280;46846;51.528;5.076;2022-07-22T07:00:53;101566.81;;;17.98;52.18
60974;BME280;46846;51.528;5.076;2022-07-22T07:03:18;101565.84;;;17.99;53.10
60974;BME280;46846;51.528;5.076;2022-07-22T07:05:43;101570.38;;;17.99;52.29
60974;BME280;46846;51.528;5.076;2022-07-22T07:08:09;101570.19;;;18.02;52.16
60974;BME280;46846;51.528;5.076;2022-07-22T07:10:34;101568.53;;;17.99;52.33
60974;BME280;46846;51.528;5.076;2022-07-22T07:13:00;101564.22;;;17.97;52.31
60974;BME280;46846;51.528;5.076;2022-07-22T07:15:26;101564.91;;;18.00;52.42
60974;BME280;46846;51.528;5.076;2022-07-22T07:17:52;101569.25;;;18.03;52.09
60974;BME280;46846;51.528;5.076;2022-07-22T07:20:18;101559.31;;;18.05;52.02
60974;BME280;46846;51.528;5.076;2022-07-22T07:22:44;101566.31;;;18.08;52.06
60974;BME280;46846;51.528;5.076;2022-07-22T07:25:10;101557.31;;;18.09;52.06
60974;BME280;46846;51.528;5.076;2022-07-22T07:27:35;101560.88;;;18.09;52.10
60974;BME280;46846;51.528;5.076;2022-07-22T07:30:03;101558.16;;;18.09;51.91
60974;BME280;46846;51.528;5.076;2022-07-22T07:32:29;101559.84;;;18.12;52.12
60974;BME280;46846;51.528;5.076;2022-07-22T07:34:54;101557.06;;;18.13;52.32
60974;BME280;46846;51.528;5.076;2022-07-22T07:37:21;101555.91;;;18.17;51.89
60974;BME280;46846;51.528;5.076;2022-07-22T07:39:46;101559.75;;;18.13;51.78
60974;BME280;46846;51.528;5.076;2022-07-22T07:42:12;101552.19;;;18.20;51.94
60974;BME280;46846;51.528;5.076;2022-07-22T07:44:37;101549.50;;;18.20;51.75
60974;BME280;46846;51.528;5.076;2022-07-22T07:47:03;101552.28;;;18.18;52.42
60974;BME280;46846;51.528;5.076;2022-07-22T07:49:28;101542.31;;;18.21;51.92
60974;BME280;46846;51.528;5.076;2022-07-22T07:51:54;101550.38;;;18.21;51.75
60974;BME280;46846;51.528;5.076;2022-07-22T07:54:19;101549.44;;;18.22;51.74
60974;BME280;46846;51.528;5.076;2022-07-22T07:56:45;101556.38;;;18.26;51.71
60974;BME280;46846;51.528;5.076;2022-07-22T07:59:10;101551.22;;;18.21;51.53
60974;BME280;46846;51.528;5.076;2022-07-22T08:01:36;101540.38;;;18.23;51.76
60974;BME280;46846;51.528;5.076;2022-07-22T08:04:01;101537.63;;;18.24;51.70
60974;BME280;46846;51.528;5.076;2022-07-22T08:06:27;101545.44;;;18.29;51.57
60974;BME280;46846;51.528;5.076;2022-07-22T08:08:52;101550.19;;;18.24;51.90
60974;BME280;46846;51.528;5.076;2022-07-22T08:11:18;101544.66;;;18.27;51.84
60974;BME280;46846;51.528;5.076;2022-07-22T08:13:43;101546.91;;;18.35;51.67
60974;BME280;46846;51.528;5.076;2022-07-22T08:16:09;101550.47;;;18.35;51.94
60974;BME280;46846;51.528;5.076;2022-07-22T08:18:34;101550.38;;;18.37;51.95
60974;BME280;46846;51.528;5.076;2022-07-22T08:20:59;101550.66;;;18.48;51.86
60974;BME280;46846;51.528;5.076;2022-07-22T08:23:25;101545.34;;;18.47;51.68
60974;BME280;46846;51.528;5.076;2022-07-22T08:25:50;101556.91;;;18.49;51.51
60974;BME280;46846;51.528;5.076;2022-07-22T08:28:16;101550.31;;;18.54;51.71
60974;BME280;46846;51.528;5.076;2022-07-22T08:30:41;101548.47;;;18.55;51.66
60974;BME280;46846;51.528;5.076;2022-07-22T08:33:07;101542.91;;;18.58;51.71
60974;BME280;46846;51.528;5.076;2022-07-22T08:35:33;101532.03;;;18.59;51.49
60974;BME280;46846;51.528;5.076;2022-07-22T08:37:58;101534.66;;;18.61;51.60
60974;BME280;46846;51.528;5.076;2022-07-22T08:40:24;101533.69;;;18.62;51.64
60974;BME280;46846;51.528;5.076;2022-07-22T08:42:51;101528.22;;;18.64;51.65
60974;BME280;46846;51.528;5.076;2022-07-22T08:45:17;101535.25;;;18.66;51.97
60974;BME280;46846;51.528;5.076;2022-07-22T08:47:46;101537.75;;;18.69;51.64
60974;BME280;46846;51.528;5.076;2022-07-22T08:50:13;101527.66;;;18.73;51.48
60974;BME280;46846;51.528;5.076;2022-07-22T08:52:38;101539.16;;;18.77;51.76
60974;BME280;46846;51.528;5.076;2022-07-22T08:55:06;101531.75;;;18.80;51.55
60974;BME280;46846;51.528;5.076;2022-07-22T08:57:32;101528.78;;;18.85;51.76
60974;BME280;46846;51.528;5.076;2022-07-22T08:59:59;101525.72;;;18.91;51.66
60974;BME280;46846;51.528;5.076;2022-07-22T09:02:25;101522.94;;;18.93;51.50
60974;BME280;46846;51.528;5.076;2022-07-22T09:04:59;101529.81;;;18.98;51.26
60974;BME280;46846;51.528;5.076;2022-07-22T09:07:27;101531.91;;;19.09;50.43
60974;BME280;46846;51.528;5.076;2022-07-22T09:09:54;101526.59;;;19.08;51.04
60974;BME280;46846;51.528;5.076;2022-07-22T09:12:19;101531.97;;;19.08;51.27
60974;BME280;46846;51.528;5.076;2022-07-22T09:14:46;101540.94;;;19.08;51.22
60974;BME280;46846;51.528;5.076;2022-07-22T09:19:47;101529.97;;;19.11;51.56
60974;BME280;46846;51.528;5.076;2022-07-22T09:22:13;101529.69;;;19.16;51.02
60974;BME280;46846;51.528;5.076;2022-07-22T09:24:38;101524.13;;;19.19;51.33
60974;BME280;46846;51.528;5.076;2022-07-22T09:27:04;101521.22;;;19.22;51.30
60974;BME280;46846;51.528;5.076;2022-07-22T09:29:32;101517.41;;;19.26;51.07
60974;BME280;46846;51.528;5.076;2022-07-22T09:31:57;101519.13;;;19.27;51.26
60974;BME280;46846;51.528;5.076;2022-07-22T09:34:31;101508.13;;;19.31;51.00
60974;BME280;46846;51.528;5.076;2022-07-22T09:37:00;101506.81;;;19.38;51.08
60974;BME280;46846;51.528;5.076;2022-07-22T09:39:27;101511.25;;;19.39;50.44
60974;BME280;46846;51.528;5.076;2022-07-22T09:42:00;101514.63;;;19.43;50.86
60974;BME280;46846;51.528;5.076;2022-07-22T09:44:26;101514.44;;;19.46;50.73
60974;BME280;46846;51.528;5.076;2022-07-22T09:46:51;101515.22;;;19.48;50.93
60974;BME280;46846;51.528;5.076;2022-07-22T09:49:34;101514.06;;;19.52;50.71
60974;BME280;46846;51.528;5.076;2022-07-22T09:52:00;101510.88;;;19.60;49.99
60974;BME280;46846;51.528;5.076;2022-07-22T09:54:27;101509.72;;;19.64;50.42
60974;BME280;46846;51.528;5.076;2022-07-22T09:56:53;101506.16;;;19.63;50.71
60974;BME280;46846;51.528;5.076;2022-07-22T09:59:18;101506.16;;;19.63;50.61
60974;BME280;46846;51.528;5.076;2022-07-22T10:01:45;101521.97;;;19.70;50.38
60974;BME280;46846;51.528;5.076;2022-07-22T10:04:14;101518.22;;;19.72;49.88
60974;BME280;46846;51.528;5.076;2022-07-22T10:06:41;101524.59;;;19.71;50.58
60974;BME280;46846;51.528;5.076;2022-07-22T10:09:07;101527.97;;;19.75;50.44
60974;BME280;46846;51.528;5.076;2022-07-22T10:11:36;101518.91;;;19.76;50.56
60974;BME280;46846;51.528;5.076;2022-07-22T10:14:02;101523.31;;;19.77;50.28
60974;BME280;46846;51.528;5.076;2022-07-22T10:16:28;101515.91;;;19.80;50.55
60974;BME280;46846;51.528;5.076;2022-07-22T10:18:54;101519.06;;;19.87;49.86
60974;BME280;46846;51.528;5.076;2022-07-22T10:21:31;101509.06;;;19.89;50.25
60974;BME280;46846;51.528;5.076;2022-07-22T10:24:14;101511.28;;;19.97;50.14
60974;BME280;46846;51.528;5.076;2022-07-22T10:26:57;101507.63;;;19.98;50.01
60974;BME280;46846;51.528;5.076;2022-07-22T10:29:38;101514.97;;;19.96;50.13
60974;BME280;46846;51.528;5.076;2022-07-22T10:43:03;101527.00;;;20.19;49.34
60974;BME280;46846;51.528;5.076;2022-07-22T10:45:35;101514.47;;;20.18;49.66
60974;BME280;46846;51.528;5.076;2022-07-22T10:48:12;101505.38;;;20.19;49.47
60974;BME280;46846;51.528;5.076;2022-07-22T10:50:40;101505.28;;;20.21;49.69
60974;BME280;46846;51.528;5.076;2022-07-22T10:53:07;101510.50;;;20.24;49.58
60974;BME280;46846;51.528;5.076;2022-07-22T10:55:33;101505.00;;;20.26;49.64
60974;BME280;46846;51.528;5.076;2022-07-22T10:57:59;101490.88;;;20.35;48.42
60974;BME280;46846;51.528;5.076;2022-07-22T11:00:25;101487.28;;;20.34;49.31
60974;BME280;46846;51.528;5.076;2022-07-22T11:02:50;101485.38;;;20.37;49.54
60974;BME280;46846;51.528;5.076;2022-07-22T11:05:26;101483.44;;;20.39;49.36
60974;BME280;46846;51.528;5.076;2022-07-22T11:07:52;101495.00;;;20.41;49.39
60974;BME280;46846;51.528;5.076;2022-07-22T11:10:20;101491.00;;;20.46;49.19
60974;BME280;46846;51.528;5.076;2022-07-22T11:12:47;101501.44;;;20.53;49.21
60974;BME280;46846;51.528;5.076;2022-07-22T11:15:12;101489.75;;;20.52;49.37
60974;BME280;46846;51.528;5.076;2022-07-22T11:17:38;101499.28;;;20.58;49.45
60974;BME280;46846;51.528;5.076;2022-07-22T11:20:07;101488.38;;;20.59;49.21
60974;BME280;46846;51.528;5.076;2022-07-22T11:22:33;101487.75;;;20.69;47.19
60974;BME280;46846;51.528;5.076;2022-07-22T11:25:07;101476.72;;;20.72;48.98
60974;BME280;46846;51.528;5.076;2022-07-22T11:27:33;101484.66;;;20.75;49.11
60974;BME280;46846;51.528;5.076;2022-07-22T11:29:58;101476.63;;;20.73;49.07
60974;BME280;46846;51.528;5.076;2022-07-22T11:32:25;101467.22;;;20.79;49.14
60974;BME280;46846;51.528;5.076;2022-07-22T11:34:51;101457.06;;;20.83;48.06
60974;BME280;46846;51.528;5.076;2022-07-22T11:37:19;101457.97;;;20.83;48.56
60974;BME280;46846;51.528;5.076;2022-07-22T11:39:45;101457.66;;;20.88;48.35
60974;BME280;46846;51.528;5.076;2022-07-22T11:42:11;101455.72;;;20.90;48.35
60974;BME280;46846;51.528;5.076;2022-07-22T11:44:38;101447.06;;;20.98;47.14
60974;BME280;46846;51.528;5.076;2022-07-22T11:47:05;101443.06;;;21.03;48.23
60974;BME280;46846;51.528;5.076;2022-07-22T11:49:34;101444.38;;;21.11;46.63
60974;BME280;46846;51.528;5.076;2022-07-22T11:52:01;101431.50;;;21.14;47.18
60974;BME280;46846;51.528;5.076;2022-07-22T11:54:27;101425.84;;;21.17;47.87
60974;BME280;46846;51.528;5.076;2022-07-22T11:56:53;101424.78;;;21.07;48.11
60974;BME280;46846;51.528;5.076;2022-07-22T11:59:19;101417.41;;;21.09;48.04
60974;BME280;46846;51.528;5.076;2022-07-22T12:01:46;101418.38;;;21.21;48.24
60974;BME280;46846;51.528;5.076;2022-07-22T12:04:24;101419.38;;;21.20;48.00
60974;BME280;46846;51.528;5.076;2022-07-22T12:06:50;101416.13;;;21.28;47.00
60974;BME280;46846;51.528;5.076;2022-07-22T12:09:22;101419.50;;;21.31;47.69
60974;BME280;46846;51.528;5.076;2022-07-22T12:11:51;101421.97;;;21.35;47.61
60974;BME280;46846;51.528;5.076;2022-07-22T12:14:19;101408.22;;;21.38;47.47
60974;BME280;46846;51.528;5.076;2022-07-22T12:19:19;101404.31;;;21.42;47.87
60974;BME280;46846;51.528;5.076;2022-07-22T12:21:55;101406.34;;;21.51;47.56
60974;BME280;46846;51.528;5.076;2022-07-22T12:24:35;101404.63;;;21.50;47.52
60974;BME280;46846;51.528;5.076;2022-07-22T12:27:15;101415.66;;;21.60;47.43
60974;BME280;46846;51.528;5.076;2022-07-22T12:29:45;101411.88;;;21.63;47.48
60974;BME280;46846;51.528;5.076;2022-07-22T12:32:18;101407.09;;;21.66;46.44
60974;BME280;46846;51.528;5.076;2022-07-22T12:34:58;101406.53;;;21.74;47.27
60974;BME280;46846;51.528;5.076;2022-07-22T12:37:27;101402.66;;;21.78;47.37
60974;BME280;46846;51.528;5.076;2022-07-22T12:39:59;101389.00;;;21.80;47.60
60974;BME280;46846;51.528;5.076;2022-07-22T12:42:26;101391.72;;;21.80;47.43
60974;BME280;46846;51.528;5.076;2022-07-22T12:45:02;101396.91;;;21.83;47.29
60974;BME280;46846;51.528;5.076;2022-07-22T12:47:51;101398.16;;;21.90;47.18
60974;BME280;46846;51.528;5.076;2022-07-22T12:50:57;101393.38;;;21.94;47.08
60974;BME280;46846;51.528;5.076;2022-07-22T12:53:24;101379.50;;;21.98;46.84
60974;BME280;46846;51.528;5.076;2022-07-22T12:55:52;101388.16;;;22.04;47.12
60974;BME280;46846;51.528;5.076;2022-07-22T12:58:20;101388.91;;;22.06;46.50
60974;BME280;46846;51.528;5.076;2022-07-22T13:00:48;101389.78;;;22.06;46.88
60974;BME280;46846;51.528;5.076;2022-07-22T13:03:15;101388.69;;;22.09;47.27